createdAt,value
2023-04-26T00:00:19.593Z,3.990
2023-04-26T00:01:19.764Z,3.947
2023-04-26T00:02:20.015Z,3.990
2023-04-26T00:03:19.968Z,4.009
2023-04-26T00:04:20.636Z,3.982
2023-04-26T00:06:19.456Z,3.950
2023-04-26T00:07:19.553Z,3.891
2023-04-26T00:08:19.758Z,3.907
2023-04-26T00:09:19.973Z,3.910
2023-04-26T00:10:19.127Z,3.720
2023-04-26T00:11:19.292Z,3.739
2023-04-26T00:12:19.477Z,3.779
2023-04-26T00:13:19.646Z,3.830
2023-04-26T00:14:19.781Z,3.899
2023-04-26T00:15:19.972Z,3.985
2023-04-26T00:16:19.230Z,3.990
2023-04-26T00:17:19.675Z,3.928
2023-04-26T00:18:20.124Z,3.926
2023-04-26T00:19:19.334Z,3.942
2023-04-26T00:20:19.478Z,4.054
2023-04-26T00:21:19.616Z,4.134
2023-04-26T00:22:20.002Z,4.091
2023-04-26T00:23:19.437Z,4.019
2023-04-26T00:24:19.594Z,4.009
2023-04-26T00:25:19.852Z,4.054
2023-04-26T00:26:20.011Z,4.009
2023-04-26T00:27:20.124Z,3.982
2023-04-26T00:29:19.416Z,4.027
2023-04-26T00:30:19.637Z,4.046
2023-04-26T00:31:20.181Z,3.985
2023-04-26T00:34:19.387Z,3.792
2023-04-26T00:35:19.526Z,3.675
2023-04-26T00:36:19.750Z,3.739
2023-04-26T00:37:19.935Z,3.677
2023-04-26T00:39:19.417Z,3.675
2023-04-26T00:40:19.653Z,3.648
2023-04-26T00:41:19.825Z,3.717
2023-04-26T00:42:19.972Z,3.744
2023-04-26T00:44:19.303Z,3.651
2023-04-26T00:45:19.456Z,3.627
2023-04-26T00:46:20.022Z,3.640
2023-04-26T00:47:19.506Z,3.576
2023-04-26T00:48:19.952Z,3.560
2023-04-26T00:49:20.091Z,3.579
2023-04-26T00:50:19.331Z,3.613
2023-04-26T00:51:19.556Z,3.531
2023-04-26T00:52:19.637Z,3.437
2023-04-26T00:53:19.854Z,3.397
2023-04-26T00:54:20.142Z,3.376
2023-04-26T00:55:19.360Z,3.317
2023-04-26T00:57:19.977Z,3.266
2023-04-26T00:58:19.129Z,3.269
2023-04-26T00:59:19.299Z,3.205
2023-04-26T01:00:19.783Z,3.183
2023-04-26T01:01:20.193Z,3.167
2023-04-26T01:02:19.757Z,3.029
2023-04-26T01:05:19.684Z,3.029
2023-04-26T01:06:19.957Z,2.962
2023-04-26T01:07:19.228Z,2.962
2023-04-26T01:08:19.446Z,2.956
2023-04-26T01:09:19.941Z,2.879
2023-04-26T01:10:20.102Z,2.818
2023-04-26T01:11:19.286Z,2.868
2023-04-26T01:12:19.407Z,2.844
2023-04-26T01:13:19.548Z,2.954
2023-04-26T01:14:19.701Z,2.954
2023-04-26T01:15:19.866Z,2.842
2023-04-26T01:16:20.111Z,2.932
2023-04-26T01:17:19.612Z,2.983
2023-04-26T01:18:20.056Z,2.975
2023-04-26T01:20:19.375Z,2.959
2023-04-26T01:21:20.981Z,2.975
2023-04-26T01:22:19.125Z,2.991
2023-04-26T01:23:19.293Z,2.983
2023-04-26T01:24:19.480Z,2.818
2023-04-26T01:25:19.632Z,2.900
2023-04-26T01:26:19.779Z,2.935
2023-04-26T01:27:19.938Z,2.908
2023-04-26T01:28:19.262Z,2.898
2023-04-26T01:29:19.408Z,2.916
2023-04-26T01:30:19.628Z,2.930
2023-04-26T01:31:19.871Z,2.895
2023-04-26T01:33:19.649Z,2.788
2023-04-26T01:34:19.842Z,2.740
2023-04-26T01:35:20.145Z,2.703
2023-04-26T01:36:19.302Z,2.639
2023-04-26T01:37:19.660Z,2.428
2023-04-26T01:38:19.855Z,2.569
2023-04-26T01:39:20.072Z,2.532
2023-04-26T01:40:19.267Z,2.612
2023-04-26T01:41:19.482Z,2.494
2023-04-26T01:42:19.869Z,2.462
2023-04-26T01:43:20.111Z,2.513
2023-04-26T01:45:19.420Z,2.377
2023-04-26T01:46:19.751Z,2.353
2023-04-26T01:48:19.700Z,2.326
2023-04-26T01:49:19.924Z,2.441
2023-04-26T01:50:19.112Z,2.380
2023-04-26T01:51:19.332Z,2.494
2023-04-26T01:52:19.464Z,2.492
2023-04-26T01:53:19.633Z,2.329
2023-04-26T01:54:19.864Z,2.297
2023-04-26T01:55:20.048Z,2.094
2023-04-26T01:57:19.480Z,2.006
2023-04-26T01:58:19.736Z,2.030
2023-04-26T01:59:19.836Z,2.094
2023-04-26T02:00:20.259Z,2.057
2023-04-26T02:02:19.984Z,2.217
2023-04-26T02:03:19.685Z,2.203
2023-04-26T02:06:19.929Z,2.006
2023-04-26T02:07:19.159Z,1.974
2023-04-26T02:08:19.262Z,1.990
2023-04-26T02:09:19.555Z,1.992
2023-04-26T02:10:19.735Z,1.920
2023-04-26T02:11:20.051Z,1.976
2023-04-26T02:12:19.162Z,1.808
2023-04-26T02:13:19.421Z,1.854
2023-04-26T02:14:19.779Z,1.838
2023-04-26T02:15:19.967Z,1.912
2023-04-26T02:16:19.265Z,1.699
2023-04-26T02:17:19.699Z,1.723
2023-04-26T02:18:20.127Z,1.693
2023-04-26T02:19:19.420Z,1.811
2023-04-26T02:20:19.722Z,1.773
2023-04-26T02:21:19.874Z,1.693
2023-04-26T02:22:20.027Z,1.773
2023-04-26T02:24:19.697Z,1.776
2023-04-26T02:25:19.896Z,1.763
2023-04-26T02:26:20.128Z,1.723
2023-04-26T02:27:19.293Z,1.846
2023-04-26T02:28:19.693Z,1.808
2023-04-26T02:29:24.611Z,1.838
2023-04-26T02:30:19.956Z,1.835
2023-04-26T02:31:20.550Z,1.907
2023-04-26T02:32:19.242Z,1.936
2023-04-26T02:33:19.757Z,1.950
2023-04-26T02:34:19.920Z,1.902
2023-04-26T02:35:20.115Z,1.848
2023-04-26T02:36:19.724Z,1.816
2023-04-26T02:37:20.056Z,1.840
2023-04-26T02:38:19.218Z,1.757
2023-04-26T02:39:19.715Z,1.699
2023-04-26T02:40:19.880Z,1.763
2023-04-26T02:41:19.434Z,1.667
2023-04-26T02:42:19.596Z,1.661
2023-04-26T02:43:19.793Z,1.675
2023-04-26T02:44:19.979Z,1.701
2023-04-26T02:45:19.459Z,1.709
2023-04-26T02:46:19.663Z,1.680
2023-04-26T02:47:20.066Z,1.701
2023-04-26T02:48:19.502Z,1.739
2023-04-26T02:49:19.726Z,1.757
2023-04-26T02:50:19.963Z,1.749
2023-04-26T02:51:19.132Z,1.768
2023-04-26T02:52:19.240Z,1.707
2023-04-26T02:53:19.492Z,1.784
2023-04-26T02:54:19.834Z,1.715
2023-04-26T02:55:20.140Z,1.672
2023-04-26T02:56:19.358Z,1.693
2023-04-26T02:57:19.682Z,1.728
2023-04-26T02:58:20.110Z,1.677
2023-04-26T02:59:19.366Z,1.603
2023-04-26T03:00:19.613Z,1.517
2023-04-26T03:01:20.195Z,1.512
2023-04-26T03:02:20.055Z,1.453
2023-04-26T03:05:19.224Z,1.384
2023-04-26T03:06:19.391Z,1.349
2023-04-26T03:07:19.647Z,1.402
2023-04-26T03:08:19.936Z,1.450
2023-04-26T03:09:19.149Z,1.464
2023-04-26T03:10:19.318Z,1.381
2023-04-26T03:11:19.566Z,1.384
2023-04-26T03:12:19.738Z,1.354
2023-04-26T03:13:19.932Z,1.384
2023-04-26T03:14:19.159Z,1.469
2023-04-26T03:15:19.297Z,1.384
2023-04-26T03:16:19.662Z,1.304
2023-04-26T03:18:19.588Z,1.394
2023-04-26T03:19:19.756Z,1.330
2023-04-26T03:20:19.252Z,1.389
2023-04-26T03:21:19.425Z,1.373
2023-04-26T03:22:19.640Z,1.384
2023-04-26T03:23:19.807Z,1.279
2023-04-26T03:24:19.928Z,1.194
2023-04-26T03:25:20.082Z,1.223
2023-04-26T03:26:19.168Z,1.269
2023-04-26T03:27:19.366Z,1.151
2023-04-26T03:28:19.597Z,1.087
2023-04-26T03:29:19.738Z,1.026
2023-04-26T03:30:19.952Z,1.007
2023-04-26T03:31:20.170Z,0.946
2023-04-26T03:32:19.656Z,0.911
2023-04-26T03:33:20.022Z,0.919
2023-04-26T03:34:19.265Z,0.871
2023-04-26T03:35:19.395Z,0.834
2023-04-26T03:36:19.558Z,0.919
2023-04-26T03:37:19.725Z,0.996
2023-04-26T03:38:19.994Z,1.036
2023-04-26T03:39:19.139Z,0.935
2023-04-26T03:40:19.731Z,0.775
2023-04-26T03:41:19.916Z,0.743
2023-04-26T03:42:20.099Z,0.695
2023-04-26T03:43:19.202Z,0.649
2023-04-26T03:44:19.374Z,0.601
2023-04-26T03:45:19.571Z,0.631
2023-04-26T03:46:20.034Z,0.537
2023-04-26T03:47:19.200Z,0.505
2023-04-26T03:48:19.630Z,0.323
2023-04-26T03:49:19.788Z,0.380
2023-04-26T03:50:19.965Z,0.452
2023-04-26T03:52:19.263Z,0.457
2023-04-26T03:53:19.422Z,0.566
2023-04-26T03:54:19.523Z,0.556
2023-04-26T03:55:19.734Z,0.668
2023-04-26T03:56:19.861Z,0.524
2023-04-26T03:57:20.087Z,0.350
2023-04-26T03:58:19.226Z,0.444
2023-04-26T03:59:19.413Z,0.470
2023-04-26T04:00:19.684Z,0.433
2023-04-26T04:01:19.889Z,0.214
2023-04-26T04:02:19.133Z,0.171
2023-04-26T04:03:20.141Z,0.131
2023-04-26T04:04:20.209Z,0.163
2023-04-26T04:05:20.051Z,0.203
2023-04-26T04:07:20.020Z,0.393
2023-04-26T04:10:19.513Z,0.094
2023-04-26T04:11:19.715Z,0.214
2023-04-26T04:12:19.845Z,0.174
2023-04-26T04:13:20.092Z,-0.010
2023-04-26T04:14:19.250Z,-0.085
2023-04-26T04:15:19.371Z,-0.101
2023-04-26T04:16:19.733Z,-0.064
2023-04-26T04:18:19.246Z,-0.053
2023-04-26T04:19:19.430Z,0.027
2023-04-26T04:20:19.572Z,0.086
2023-04-26T04:21:19.801Z,0.294
2023-04-26T04:22:19.968Z,0.305
2023-04-26T04:23:19.162Z,0.163
2023-04-26T04:24:19.283Z,0.249
2023-04-26T04:25:19.495Z,0.198
2023-04-26T04:26:19.676Z,0.153
2023-04-26T04:27:20.009Z,0.163
2023-04-26T04:28:19.180Z,0.153
2023-04-26T04:29:19.356Z,0.380
2023-04-26T04:30:19.505Z,0.281
2023-04-26T04:31:19.733Z,0.369
2023-04-26T04:32:19.526Z,0.414
2023-04-26T04:33:19.828Z,0.465
2023-04-26T04:34:20.030Z,0.716
2023-04-26T04:35:19.160Z,0.732
2023-04-26T04:36:19.524Z,0.828
2023-04-26T04:37:19.640Z,0.858
2023-04-26T04:38:19.741Z,0.924
2023-04-26T04:39:19.926Z,1.015
2023-04-26T04:40:20.084Z,1.138
2023-04-26T04:41:19.176Z,1.266
2023-04-26T04:42:19.332Z,1.453
2023-04-26T04:43:19.603Z,1.584
2023-04-26T04:44:19.769Z,1.632
2023-04-26T04:45:20.007Z,1.816
2023-04-26T04:46:19.201Z,2.102
2023-04-26T04:47:19.647Z,2.337
2023-04-26T04:48:19.899Z,2.529
2023-04-26T04:49:20.066Z,2.692
2023-04-26T04:50:19.200Z,2.876
2023-04-26T04:51:19.701Z,3.071
2023-04-26T04:52:19.851Z,3.079
2023-04-26T04:53:19.968Z,3.034
2023-04-26T04:54:20.178Z,3.157
2023-04-26T04:56:19.641Z,3.536
2023-04-26T04:57:19.905Z,3.656
2023-04-26T04:58:20.115Z,3.840
2023-04-26T04:59:19.242Z,4.059
2023-04-26T05:00:19.423Z,4.139
2023-04-26T05:01:19.797Z,4.262
2023-04-26T05:02:19.456Z,4.422
2023-04-26T05:04:19.460Z,4.778
2023-04-26T05:05:19.658Z,4.588
2023-04-26T05:06:19.797Z,4.628
2023-04-26T05:07:19.947Z,5.002
2023-04-26T05:08:19.522Z,4.852
2023-04-26T05:09:19.729Z,4.748
2023-04-26T05:10:19.899Z,4.852
2023-04-26T05:11:19.102Z,4.935
2023-04-26T05:12:19.403Z,5.082
2023-04-26T05:13:19.635Z,4.994
2023-04-26T05:14:19.856Z,4.802
2023-04-26T05:15:20.048Z,4.487
2023-04-26T05:16:19.161Z,4.673
2023-04-26T05:17:19.666Z,4.697
2023-04-26T05:18:19.116Z,4.738
2023-04-26T05:19:19.278Z,4.695
2023-04-26T05:20:19.489Z,4.802
2023-04-26T05:21:19.631Z,4.892
2023-04-26T05:22:19.759Z,4.791
2023-04-26T05:23:20.092Z,4.874
2023-04-26T05:24:19.219Z,5.109
2023-04-26T05:25:21.701Z,5.005
2023-04-26T05:26:19.478Z,5.173
2023-04-26T05:27:19.590Z,4.868
2023-04-26T05:28:19.756Z,4.831
2023-04-26T05:29:19.878Z,5.229
2023-04-26T05:30:20.091Z,5.472
2023-04-26T05:31:19.260Z,5.266
2023-04-26T05:32:19.828Z,4.676
2023-04-26T05:33:19.286Z,4.716
2023-04-26T05:34:19.509Z,4.855
2023-04-26T05:35:19.841Z,5.192
2023-04-26T05:36:20.193Z,5.394
2023-04-26T05:38:19.483Z,5.127
2023-04-26T05:39:19.683Z,5.127
2023-04-26T05:40:19.840Z,5.523
2023-04-26T05:41:20.065Z,5.117
2023-04-26T05:43:19.650Z,5.493
2023-04-26T05:44:19.800Z,5.360
2023-04-26T05:45:19.988Z,5.832
2023-04-26T05:46:19.477Z,5.974
2023-04-26T05:47:19.930Z,5.787
2023-04-26T05:49:19.475Z,6.447
2023-04-26T05:50:19.651Z,6.615
2023-04-26T05:51:19.571Z,6.206
2023-04-26T05:52:19.764Z,5.899
2023-04-26T05:53:19.968Z,6.356
2023-04-26T05:55:19.261Z,5.806
2023-04-26T05:56:19.471Z,5.993
2023-04-26T05:57:19.710Z,6.236
2023-04-26T05:58:19.286Z,6.228
2023-04-26T05:59:19.437Z,5.966
2023-04-26T06:00:19.667Z,5.977
2023-04-26T06:01:19.932Z,6.431
2023-04-26T06:02:20.233Z,6.714
2023-04-26T06:04:20.032Z,6.839
2023-04-26T06:05:20.530Z,6.938
2023-04-26T06:06:19.285Z,6.983
2023-04-26T06:07:19.495Z,7.304
2023-04-26T06:08:19.636Z,7.325
2023-04-26T06:09:20.234Z,7.285
2023-04-26T06:10:19.624Z,6.770
2023-04-26T06:11:19.747Z,7.125
2023-04-26T06:12:20.036Z,6.999
2023-04-26T06:13:19.773Z,6.767
2023-04-26T06:14:29.777Z,7.093
2023-04-26T06:16:19.780Z,7.589
2023-04-26T06:17:19.383Z,7.838
2023-04-26T06:18:19.890Z,7.723
2023-04-26T06:19:19.157Z,7.290
2023-04-26T06:20:19.496Z,7.365
2023-04-26T06:21:19.673Z,7.531
2023-04-26T06:22:19.873Z,7.734
2023-04-26T06:23:20.423Z,7.597
2023-04-26T06:24:19.684Z,6.999
2023-04-26T06:25:19.800Z,7.200
2023-04-26T06:26:20.001Z,7.459
2023-04-26T06:27:19.545Z,6.941
2023-04-26T06:28:19.943Z,7.346
2023-04-26T06:29:20.005Z,7.525
2023-04-26T06:30:19.187Z,7.939
2023-04-26T06:31:19.646Z,8.353
2023-04-26T06:32:19.113Z,8.292
2023-04-26T06:33:19.591Z,8.252
2023-04-26T06:34:19.801Z,8.342
2023-04-26T06:35:19.967Z,8.593
2023-04-26T06:37:19.756Z,8.393
2023-04-26T06:38:19.964Z,8.636
2023-04-26T06:39:20.102Z,8.861
2023-04-26T06:40:19.388Z,8.513
2023-04-26T06:41:19.799Z,7.883
2023-04-26T06:42:20.244Z,7.264
2023-04-26T06:43:19.411Z,7.565
2023-04-26T06:44:19.735Z,7.779
2023-04-26T06:45:19.968Z,7.627
2023-04-26T06:46:19.976Z,7.977
2023-04-26T06:48:19.880Z,7.800
2023-04-26T06:49:20.049Z,8.011
2023-04-26T06:50:19.268Z,8.644
2023-04-26T06:51:19.736Z,8.855
2023-04-26T06:52:21.501Z,9.130
2023-04-26T06:53:21.810Z,9.539
2023-04-26T06:54:20.161Z,9.336
2023-04-26T06:56:22.283Z,8.695
2023-04-26T06:57:22.645Z,8.332
2023-04-26T06:58:22.832Z,8.660
2023-04-26T06:59:23.077Z,9.079
2023-04-26T07:00:22.280Z,9.122
2023-04-26T07:01:22.566Z,9.512
2023-04-26T07:02:23.331Z,9.101
2023-04-26T07:05:23.543Z,8.463
2023-04-26T07:06:22.917Z,8.375
2023-04-26T07:10:23.065Z,8.332
2023-04-26T07:11:24.013Z,8.489
2023-04-26T07:15:23.172Z,9.603
2023-04-26T07:16:22.529Z,9.266
2023-04-26T07:17:22.893Z,9.485
2023-04-26T07:18:22.207Z,9.643
2023-04-26T07:19:22.368Z,10.169
2023-04-26T07:20:22.584Z,10.126
2023-04-26T07:21:23.036Z,10.388
2023-04-26T07:22:22.332Z,10.783
2023-04-26T07:23:22.550Z,10.917
2023-04-26T07:24:22.919Z,10.321
2023-04-26T07:25:23.145Z,9.910
2023-04-26T07:27:22.565Z,10.556
2023-04-26T07:28:22.803Z,11.336
2023-04-26T07:29:23.192Z,11.357
2023-04-26T07:31:25.869Z,11.272
2023-04-26T07:33:23.138Z,11.966
2023-04-26T07:36:24.507Z,10.212
2023-04-26T07:37:22.275Z,9.784
2023-04-26T07:38:22.615Z,9.557
2023-04-26T07:39:22.968Z,9.678
2023-04-26T07:40:22.187Z,9.817
2023-04-26T07:41:22.387Z,9.186
2023-04-26T07:42:22.819Z,9.266
2023-04-26T07:43:23.371Z,9.245
2023-04-26T07:44:22.710Z,9.023
2023-04-26T07:45:22.911Z,8.607
2023-04-26T07:48:22.600Z,8.548
2023-04-26T07:49:22.913Z,8.794
2023-04-26T07:50:23.141Z,8.417
2023-04-26T07:51:22.588Z,8.302
2023-04-26T07:52:22.820Z,8.209
2023-04-26T07:53:23.195Z,8.367
2023-04-26T07:55:22.933Z,8.845
2023-04-26T07:56:23.137Z,8.930
2023-04-26T07:58:22.782Z,9.355
2023-04-26T07:59:23.110Z,9.683
2023-04-26T08:00:22.312Z,9.678
2023-04-26T08:01:23.330Z,9.790
2023-04-26T08:03:23.534Z,10.837
2023-04-26T08:04:22.839Z,10.882
2023-04-26T08:05:23.395Z,10.813
2023-04-26T08:06:22.708Z,11.520
2023-04-26T08:07:23.110Z,11.785
2023-04-26T08:08:22.273Z,10.786
2023-04-26T08:09:23.848Z,10.732
2023-04-26T08:10:23.036Z,9.929
2023-04-26T08:13:22.263Z,9.579
2023-04-26T08:14:22.511Z,9.314
2023-04-26T08:15:22.831Z,9.112
2023-04-26T08:16:22.212Z,9.443
2023-04-26T08:17:22.785Z,9.031
2023-04-26T08:20:23.044Z,9.063
2023-04-26T08:21:22.356Z,9.181
2023-04-26T08:22:22.664Z,9.154
2023-04-26T08:23:23.071Z,8.727
2023-04-26T08:25:22.657Z,10.423
2023-04-26T08:26:23.161Z,10.265
2023-04-26T08:27:22.483Z,9.771
2023-04-26T08:28:22.889Z,10.412
2023-04-26T08:30:22.659Z,10.062
2023-04-26T08:31:22.283Z,10.177
2023-04-26T08:32:22.786Z,9.704
2023-04-26T08:33:22.460Z,8.885
2023-04-26T08:34:22.659Z,8.695
2023-04-26T08:35:22.880Z,9.005
2023-04-26T08:36:22.223Z,8.695
2023-04-26T08:37:22.459Z,8.604
2023-04-26T08:38:22.838Z,8.634
2023-04-26T08:39:23.186Z,9.453
2023-04-26T08:40:22.746Z,9.678
2023-04-26T08:41:22.989Z,9.795
2023-04-26T08:42:22.208Z,9.389
2023-04-26T08:43:22.497Z,10.132
2023-04-26T08:44:22.869Z,10.845
2023-04-26T08:45:22.363Z,10.946
2023-04-26T08:46:22.611Z,11.162
2023-04-26T08:47:23.073Z,11.250
2023-04-26T08:48:22.541Z,11.266
2023-04-26T08:49:22.980Z,10.967
2023-04-26T08:51:22.589Z,9.937
2023-04-26T08:52:22.887Z,10.148
2023-04-26T08:53:22.151Z,9.963
2023-04-26T08:54:22.320Z,10.062
2023-04-26T08:55:22.616Z,10.441
2023-04-26T08:56:22.871Z,9.240
2023-04-26T08:57:23.118Z,9.133
2023-04-26T08:58:22.362Z,9.456
2023-04-26T08:59:22.553Z,9.186
2023-04-26T09:00:22.980Z,9.512
2023-04-26T09:01:22.312Z,9.630
2023-04-26T09:02:22.894Z,9.277
2023-04-26T09:03:23.647Z,9.704
2023-04-26T09:04:23.003Z,9.226
2023-04-26T09:06:23.531Z,9.160
2023-04-26T09:07:22.713Z,8.532
2023-04-26T09:08:22.926Z,8.634
2023-04-26T09:10:22.394Z,8.391
2023-04-26T09:12:22.256Z,9.250
2023-04-26T09:13:22.584Z,9.947
2023-04-26T09:14:22.915Z,9.934
2023-04-26T09:15:22.129Z,10.185
2023-04-26T09:16:22.771Z,10.489
2023-04-26T09:18:22.315Z,10.909
2023-04-26T09:19:22.567Z,10.730
2023-04-26T09:20:25.297Z,11.632
2023-04-26T09:21:22.522Z,12.140
2023-04-26T09:22:22.776Z,12.540
2023-04-26T09:23:22.807Z,12.503
2023-04-26T09:24:23.105Z,13.307
2023-04-26T09:25:24.339Z,14.134
2023-04-26T09:26:22.655Z,13.881
2023-04-26T09:27:22.852Z,13.061
2023-04-26T09:28:23.006Z,13.857
2023-04-26T09:30:22.434Z,14.447
2023-04-26T09:31:22.750Z,14.033
2023-04-26T09:32:22.427Z,14.025
2023-04-26T09:33:22.727Z,12.954
2023-04-26T09:34:23.031Z,12.279
2023-04-26T09:35:22.327Z,12.086
2023-04-26T09:36:22.712Z,12.700
2023-04-26T09:37:23.016Z,12.722
2023-04-26T09:39:25.900Z,11.224
2023-04-26T09:40:26.051Z,11.376
2023-04-26T09:41:25.327Z,11.926
2023-04-26T09:42:25.619Z,11.947
2023-04-26T09:43:25.869Z,12.118
2023-04-26T09:44:26.122Z,11.499
2023-04-26T09:45:25.301Z,11.929
2023-04-26T09:46:25.700Z,11.421
2023-04-26T09:48:25.718Z,10.951
2023-04-26T09:51:26.177Z,11.777
2023-04-26T09:53:25.788Z,11.515
2023-04-26T09:56:25.649Z,12.375
2023-04-26T09:57:25.853Z,12.284
2023-04-26T09:58:25.990Z,12.236
2023-04-26T09:59:25.171Z,12.506
2023-04-26T10:00:25.373Z,12.033
2023-04-26T10:01:26.004Z,12.332
2023-04-26T10:04:25.597Z,13.363
2023-04-26T10:05:26.005Z,13.312
2023-04-26T10:06:25.124Z,13.590
2023-04-26T10:07:25.340Z,13.966
2023-04-26T10:08:25.644Z,14.279
2023-04-26T10:09:25.907Z,12.666
2023-04-26T10:10:26.112Z,12.158
2023-04-26T10:12:25.504Z,10.802
2023-04-26T10:13:25.622Z,11.328
2023-04-26T10:14:25.855Z,10.770
2023-04-26T10:15:26.078Z,10.767
2023-04-26T10:17:25.719Z,11.333
2023-04-26T10:19:25.625Z,10.861
2023-04-26T10:20:25.116Z,11.050
2023-04-26T10:21:25.365Z,10.922
2023-04-26T10:22:25.618Z,10.692
2023-04-26T10:23:25.879Z,10.431
2023-04-26T10:24:26.114Z,10.324
2023-04-26T10:25:25.560Z,10.572
2023-04-26T10:26:25.695Z,10.567
2023-04-26T10:27:25.964Z,10.276
2023-04-26T10:28:25.356Z,10.497
2023-04-26T10:29:25.849Z,10.578
2023-04-26T10:30:25.975Z,10.241
2023-04-26T10:31:25.122Z,10.548
2023-04-26T10:32:25.512Z,10.086
2023-04-26T10:33:25.909Z,9.891
2023-04-26T10:34:25.231Z,10.343
2023-04-26T10:35:25.376Z,10.623
2023-04-26T10:36:25.666Z,10.292
2023-04-26T10:37:26.042Z,10.185
2023-04-26T10:38:25.258Z,10.121
2023-04-26T10:39:25.485Z,10.316
2023-04-26T10:40:25.784Z,10.484
2023-04-26T10:41:25.993Z,10.532
2023-04-26T10:42:26.000Z,10.046
2023-04-26T10:43:26.177Z,10.537
2023-04-26T10:45:25.899Z,10.460
2023-04-26T10:46:25.404Z,10.722
2023-04-26T10:47:26.096Z,10.452
2023-04-26T10:49:26.686Z,11.186
2023-04-26T10:50:25.968Z,11.501
2023-04-26T10:51:26.177Z,11.264
2023-04-26T10:52:25.337Z,11.128
2023-04-26T10:53:25.700Z,10.991
2023-04-26T10:54:25.983Z,11.886
2023-04-26T10:55:25.474Z,12.166
2023-04-26T10:56:25.970Z,11.995
2023-04-26T10:57:26.157Z,11.841
2023-04-26T10:59:40.108Z,11.480
2023-04-26T11:01:28.647Z,11.045
2023-04-26T11:02:28.318Z,11.040
2023-04-26T11:03:28.637Z,11.109
2023-04-26T11:04:28.162Z,10.612
2023-04-26T11:05:28.680Z,10.532
2023-04-26T11:06:28.939Z,10.652
2023-04-26T11:07:28.147Z,10.642
2023-04-26T11:09:28.548Z,10.999
2023-04-26T11:10:28.728Z,11.395
2023-04-26T11:11:28.110Z,12.041
2023-04-26T11:12:28.390Z,11.963
2023-04-26T11:13:28.740Z,12.335
2023-04-26T11:14:28.978Z,12.893
2023-04-26T11:15:28.360Z,12.623
2023-04-26T11:16:28.722Z,12.540
2023-04-26T11:19:28.931Z,12.556
2023-04-26T11:20:29.343Z,11.715
2023-04-26T11:21:28.582Z,12.343
2023-04-26T11:22:28.872Z,11.761
2023-04-26T11:23:29.097Z,12.209
2023-04-26T11:24:28.339Z,12.631
2023-04-26T11:25:28.799Z,13.235
2023-04-26T11:26:28.158Z,13.595
2023-04-26T11:27:28.306Z,13.899
2023-04-26T11:28:28.519Z,14.425
2023-04-26T11:29:28.391Z,12.329
2023-04-26T11:30:28.610Z,12.698
2023-04-26T11:31:28.881Z,12.463
2023-04-26T11:32:28.509Z,12.118
2023-04-26T11:33:28.969Z,11.902
2023-04-26T11:34:28.537Z,11.258
2023-04-26T11:35:28.740Z,11.496
2023-04-26T11:36:29.008Z,11.531
2023-04-26T11:37:28.216Z,11.248
2023-04-26T11:38:28.426Z,11.242
2023-04-26T11:39:31.569Z,11.114
2023-04-26T11:42:28.358Z,11.899
2023-04-26T11:43:28.739Z,11.659
2023-04-26T11:44:28.299Z,11.451
2023-04-26T11:45:29.021Z,12.012
2023-04-26T11:46:28.211Z,13.061
2023-04-26T11:47:28.556Z,13.894
2023-04-26T11:48:29.024Z,13.721
2023-04-26T11:49:28.197Z,14.060
2023-04-26T11:50:28.522Z,13.996
2023-04-26T11:51:29.382Z,13.579
2023-04-26T11:52:29.007Z,13.069
2023-04-26T11:53:28.145Z,12.543
2023-04-26T11:54:28.317Z,13.005
2023-04-26T11:55:28.462Z,13.269
2023-04-26T11:56:28.678Z,12.562
2023-04-26T11:57:28.886Z,12.209
2023-04-26T11:58:29.137Z,12.407
2023-04-26T11:59:28.307Z,12.177
2023-04-26T12:00:29.022Z,11.736
2023-04-26T12:02:28.853Z,11.568
2023-04-26T12:03:29.185Z,11.990
2023-04-26T12:04:30.130Z,11.728
2023-04-26T12:05:29.040Z,12.113
2023-04-26T12:06:28.790Z,11.544
2023-04-26T12:07:28.984Z,12.004
2023-04-26T12:08:29.120Z,12.540
2023-04-26T12:09:28.334Z,12.596
2023-04-26T12:10:28.859Z,12.650
2023-04-26T12:11:29.030Z,12.447
2023-04-26T12:12:28.333Z,12.823
2023-04-26T12:13:28.560Z,12.901
2023-04-26T12:14:28.805Z,13.325
2023-04-26T12:15:30.598Z,13.590
2023-04-26T12:17:28.414Z,13.838
2023-04-26T12:18:28.212Z,14.644
2023-04-26T12:19:28.469Z,14.543
2023-04-26T12:20:28.841Z,15.325
2023-04-26T12:21:30.820Z,14.538
2023-04-26T12:22:29.214Z,13.859
2023-04-26T12:23:28.489Z,13.512
2023-04-26T12:24:28.807Z,13.918
2023-04-26T12:25:28.345Z,13.875
2023-04-26T12:26:28.648Z,13.985
2023-04-26T12:27:29.022Z,14.166
2023-04-26T12:28:28.276Z,14.479
2023-04-26T12:29:28.564Z,13.910
2023-04-26T12:30:28.853Z,14.033
2023-04-26T12:31:29.269Z,14.690
2023-04-26T12:32:28.816Z,14.612
2023-04-26T12:33:33.460Z,14.113
2023-04-26T12:35:29.092Z,14.199
2023-04-26T12:36:28.396Z,13.715
2023-04-26T12:37:28.724Z,13.486
2023-04-26T12:38:29.432Z,13.267
2023-04-26T12:39:28.663Z,12.765
2023-04-26T12:40:28.931Z,12.794
2023-04-26T12:42:28.375Z,12.802
2023-04-26T12:43:28.843Z,12.385
2023-04-26T12:44:29.164Z,12.161
2023-04-26T12:45:28.767Z,12.567
2023-04-26T12:46:29.115Z,12.409
2023-04-26T12:47:29.074Z,11.891
2023-04-26T12:48:28.851Z,12.028
2023-04-26T12:49:29.103Z,11.977
2023-04-26T12:50:28.368Z,12.260
2023-04-26T12:51:28.518Z,12.591
2023-04-26T12:52:28.816Z,12.311
2023-04-26T12:54:28.509Z,11.536
2023-04-26T12:55:29.959Z,11.779
2023-04-26T12:56:28.898Z,11.894
2023-04-26T12:57:28.246Z,12.230
2023-04-26T12:58:28.696Z,11.969
2023-04-26T12:59:28.916Z,11.825
2023-04-26T13:00:28.189Z,12.383
2023-04-26T13:01:28.390Z,12.898
2023-04-26T13:02:28.822Z,12.984
2023-04-26T13:03:28.750Z,13.395
2023-04-26T13:04:29.187Z,13.235
2023-04-26T13:06:28.948Z,13.333
2023-04-26T13:08:28.350Z,14.452
2023-04-26T13:09:28.877Z,14.984
2023-04-26T13:10:30.617Z,14.231
2023-04-26T13:11:28.807Z,14.743
2023-04-26T13:12:29.008Z,14.249
2023-04-26T13:13:36.159Z,13.910
2023-04-26T13:14:28.414Z,14.639
2023-04-26T13:15:28.925Z,14.989
2023-04-26T13:16:30.234Z,14.570
2023-04-26T13:18:29.404Z,15.750
2023-04-26T13:19:28.654Z,16.626
2023-04-26T13:20:30.393Z,17.189
2023-04-26T13:21:28.380Z,16.669
2023-04-26T13:22:28.632Z,16.914
2023-04-26T13:23:29.224Z,16.423
2023-04-26T13:24:28.485Z,15.622
2023-04-26T13:25:29.137Z,14.623
2023-04-26T13:26:28.423Z,13.873
2023-04-26T13:27:31.257Z,14.807
2023-04-26T13:28:29.141Z,13.982
2023-04-26T13:29:28.371Z,13.611
2023-04-26T13:30:28.550Z,13.819
2023-04-26T13:31:28.832Z,13.344
2023-04-26T13:33:29.061Z,13.307
2023-04-26T13:34:28.294Z,12.818
2023-04-26T13:35:28.575Z,12.644
2023-04-26T13:36:28.935Z,13.560
2023-04-26T13:38:28.943Z,14.052
2023-04-26T13:39:28.515Z,14.073
2023-04-26T13:40:28.748Z,14.855
2023-04-26T13:41:30.414Z,14.986
2023-04-26T13:43:28.820Z,14.773
2023-04-26T13:44:29.049Z,14.917
2023-04-26T13:45:28.413Z,14.084
2023-04-26T13:48:29.241Z,13.288
2023-04-26T13:49:28.375Z,13.595
2023-04-26T13:50:28.575Z,12.853
2023-04-26T13:51:28.885Z,12.879
2023-04-26T13:52:29.162Z,12.967
2023-04-26T13:53:29.184Z,13.221
2023-04-26T13:55:28.502Z,14.914
2023-04-26T13:56:29.318Z,14.725
2023-04-26T13:57:30.616Z,13.769
2023-04-26T13:58:32.207Z,14.121
2023-04-26T14:00:28.775Z,16.185
2023-04-26T14:01:30.657Z,16.001
2023-04-26T14:03:28.833Z,15.050
2023-04-26T14:04:29.004Z,15.440
2023-04-26T14:06:28.849Z,14.428
2023-04-26T14:07:28.272Z,14.150
2023-04-26T14:08:28.519Z,14.527
2023-04-26T14:09:29.009Z,13.301
2023-04-26T14:11:29.013Z,13.349
2023-04-26T14:13:29.604Z,12.786
2023-04-26T14:14:29.835Z,12.906
2023-04-26T14:15:29.191Z,12.519
2023-04-26T14:16:29.670Z,13.403
2023-04-26T14:17:30.131Z,13.742
2023-04-26T14:18:29.836Z,13.550
2023-04-26T14:19:30.115Z,13.742
2023-04-26T14:21:29.904Z,13.616
2023-04-26T14:22:30.263Z,13.437
2023-04-26T14:23:29.563Z,13.299
2023-04-26T14:24:29.867Z,12.754
2023-04-26T14:25:29.164Z,12.807
2023-04-26T14:26:29.293Z,12.957
2023-04-26T14:27:29.828Z,13.082
2023-04-26T14:28:30.002Z,13.178
2023-04-26T14:29:29.209Z,13.384
2023-04-26T14:30:29.685Z,13.755